This is the latest recevied weather packets stored in our database for station/object LRTM. If no packets are shown the sender has not sent any weather packets the latest 10 day(s).
| Time | Temp. | Humidity | Pressure | Rain* | Wind** | Luminosity | Snow |
|---|---|---|---|---|---|---|---|
| 1777627106 | 10° C | 43% | 1026 hPa | - | - | - | - |
| 1777626206 | 10° C | 43% | 1026 hPa | - | - | - | - |
| 1777625306 | 10° C | 35% | 1026 hPa | - | - | - | - |
| 1777624407 | 10° C | 35% | 1026 hPa | - | - | - | - |
| 1777623524 | 8.89° C | 54% | 1026 hPa | - | - | - | - |
| 1777622606 | 8.89° C | 54% | 1026 hPa | - | - | - | - |
| 1777621706 | 7.22° C | 57% | 1026 hPa | - | - | - | - |
| 1777620806 | 7.22° C | 57% | 1026 hPa | - | - | - | - |
| 1777619906 | 5° C | 70% | 1026 hPa | - | - | - | - |
| 1777619006 | 5° C | 70% | 1026 hPa | - | - | - | - |
| 1777618110 | 3.89° C | 75% | 1026 hPa | - | - | - | - |
| 1777617206 | 3.89° C | 75% | 1026 hPa | - | - | - | - |
| 1777616308 | 2.78° C | 81% | 1026 hPa | - | - | - | - |
| 1777615406 | 2.78° C | 81% | 1026 hPa | - | - | - | - |
| 1777614506 | 2.78° C | 81% | 1026 hPa | - | - | - | - |
| 1777613606 | 2.78° C | 81% | 1026 hPa | - | - | - | - |
| 1777612707 | 2.22° C | 81% | 1026 hPa | - | - | - | - |
| 1777611806 | 2.22° C | 81% | 1026 hPa | - | - | - | - |
| 1777610906 | 1.11° C | 87% | 1026 hPa | - | - | - | - |
| 1777610006 | 1.11° C | 87% | 1026 hPa | - | - | - | - |
| 1777609106 | 1.11° C | 87% | 1026 hPa | - | - | - | - |
| 1777608206 | 1.11° C | 87% | 1026 hPa | - | - | - | - |
| 1777607306 | 1.11° C | 87% | 1026 hPa | - | - | - | - |
| 1777606406 | 1.11° C | 87% | 1026 hPa | - | - | - | - |
| 1777605506 | 1.11° C | 87% | 1026 hPa | - | - | - | - |
* Rain since midnight (hover to see other rain measurements)
** Current wind speed in m/s (hover to see current wind gust speed)